Time;durP1;ratioP1;P1;durP2;ratioP2;P2;SDS_P1;SDS_P2;PMS_P1;PMS_P2;Temp;Humidity;BMP_temperature;BMP_pressure;BME280_temperature;BME280_humidity;BME280_pressure;Samples;Min_cycle;Max_cycle;Signal;HPM_P1;HPM_P2
2021/07/24 00:02:51;;;;;;;13.63;12.20;;;21.80;91.10;;;;;;10497703;28;20554;-81
2021/07/24 00:07:54;;;;;;;13.53;11.33;;;21.80;91.60;;;;;;10491883;28;20262;-79
2021/07/24 00:12:56;;;;;;;11.60;10.53;;;21.70;91.30;;;;;;10496260;28;20203;-82
2021/07/24 00:17:59;;;;;;;11.10;10.10;;;21.70;91.30;;;;;;10479088;28;20291;-80
2021/07/24 00:23:03;;;;;;;12.33;10.80;;;21.70;91.40;;;;;;10494964;28;20713;-80
2021/07/24 00:28:05;;;;;;;12.80;11.57;;;21.70;91.30;;;;;;10503524;28;20716;-83
2021/07/24 00:33:08;;;;;;;11.13;10.13;;;21.70;91.30;;;;;;10502347;28;20197;-82
2021/07/24 00:38:11;;;;;;;12.43;11.40;;;21.70;91.80;;;;;;10485219;28;20224;-82
2021/07/24 00:43:14;;;;;;;12.37;11.17;;;21.60;91.90;;;;;;10505178;28;20227;-83
2021/07/24 00:48:20;;;;;;;11.60;10.40;;;21.60;91.80;;;;;;10487945;28;20209;-82
2021/07/24 00:53:54;;;;;;;11.30;10.20;;;21.50;91.00;;;;;;10488288;28;20228;-82
2021/07/24 00:58:56;;;;;;;11.30;10.30;;;21.50;91.30;;;;;;10500670;28;20200;-83
2021/07/24 01:03:59;;;;;;;12.23;11.03;;;21.40;90.70;;;;;;10502116;28;20236;-82
2021/07/24 01:09:03;;;;;;;11.93;10.83;;;21.40;91.80;;;;;;10489155;28;20231;-82
2021/07/24 01:14:05;;;;;;;12.10;11.00;;;21.40;91.90;;;;;;10507200;28;20239;-82
2021/07/24 01:19:08;;;;;;;12.30;11.00;;;21.40;91.80;;;;;;10502652;28;20231;-83
2021/07/24 01:24:20;;;;;;;12.47;11.30;;;21.40;92.10;;;;;;10484182;28;20236;-83
2021/07/24 01:29:24;;;;;;;12.27;11.07;;;21.40;92.10;;;;;;10506890;28;20281;-80
2021/07/24 01:34:31;;;;;;;12.57;11.37;;;21.30;92.40;;;;;;10506654;28;20223;-83
2021/07/24 01:39:37;;;;;;;12.07;10.97;;;21.30;92.80;;;;;;10488790;28;20536;-83
2021/07/24 01:44:40;;;;;;;12.50;11.30;;;21.30;92.40;;;;;;10508549;28;20219;-81
2021/07/24 01:55:07;;;;;;;11.93;10.43;;;21.30;92.10;;;;;;10511327;28;20220;-83
2021/07/24 02:00:20;;;;;;;12.47;11.43;;;21.20;92.00;;;;;;10508048;28;20203;-82
2021/07/24 02:05:31;;;;;;;13.63;12.33;;;21.20;92.20;;;;;;10508762;28;20756;-82
2021/07/24 02:10:35;;;;;;;12.03;10.93;;;21.20;92.20;;;;;;10509050;28;20312;-82
2021/07/24 02:15:38;;;;;;;12.50;11.37;;;21.20;92.60;;;;;;10508563;28;20712;-83
2021/07/24 02:20:42;;;;;;;12.23;11.13;;;21.20;92.90;;;;;;10511166;28;20189;-81
2021/07/24 02:25:46;;;;;;;12.97;11.67;;;21.10;92.40;;;;;;10484493;28;20290;-81
2021/07/24 02:30:49;;;;;;;12.73;11.60;;;21.10;92.70;;;;;;10518107;28;20228;-82
2021/07/24 02:35:51;;;;;;;13.40;11.90;;;21.20;92.70;;;;;;10511450;28;20220;-83
2021/07/24 02:40:59;;;;;;;13.67;12.30;;;21.20;92.50;;;;;;10494238;28;20204;-83
2021/07/24 02:46:03;;;;;;;13.87;12.00;;;21.20;92.80;;;;;;10484853;28;20227;-81
2021/07/24 02:51:06;;;;;;;12.80;11.60;;;21.30;92.10;;;;;;10485246;28;20216;-81
2021/07/24 02:56:09;;;;;;;14.07;11.33;;;21.20;92.60;;;;;;10503538;28;20213;-83
2021/07/24 03:01:14;;;;;;;12.63;11.40;;;21.20;93.20;;;;;;10503852;28;20193;-82
2021/07/24 03:06:16;;;;;;;13.10;11.80;;;21.20;93.00;;;;;;10507827;28;20225;-83
2021/07/24 03:11:20;;;;;;;13.00;11.70;;;21.20;93.20;;;;;;10491575;28;20239;-81
2021/07/24 03:16:22;;;;;;;13.00;11.80;;;21.30;93.80;;;;;;10504423;28;20244;-82
2021/07/24 03:21:24;;;;;;;11.43;10.47;;;21.20;93.50;;;;;;10483436;28;20203;-81
2021/07/24 03:26:27;;;;;;;13.53;12.17;;;21.20;93.70;;;;;;10503156;28;20228;-83
2021/07/24 03:31:30;;;;;;;12.80;11.70;;;21.20;93.60;;;;;;10500289;28;20270;-83
2021/07/24 03:36:32;;;;;;;13.83;12.47;;;21.20;93.40;;;;;;10498961;28;20223;-83
2021/07/24 03:41:36;;;;;;;13.27;12.07;;;21.20;93.60;;;;;;10502613;28;20295;-83
2021/07/24 03:46:38;;;;;;;13.23;11.87;;;21.20;93.10;;;;;;10504571;28;20589;-83
2021/07/24 03:51:40;;;;;;;13.27;11.93;;;21.10;93.10;;;;;;10503616;28;20216;-82
2021/07/24 03:56:43;;;;;;;14.23;12.83;;;21.10;94.30;;;;;;10503919;28;20704;-83
2021/07/24 04:01:46;;;;;;;15.57;12.30;;;21.20;94.20;;;;;;10501382;28;20204;-82
2021/07/24 04:06:50;;;;;;;12.77;11.50;;;21.30;93.90;;;;;;10503905;28;20223;-83
2021/07/24 04:11:54;;;;;;;13.43;12.20;;;21.40;94.40;;;;;;10502774;28;20278;-82
2021/07/24 04:16:56;;;;;;;13.83;12.57;;;21.40;94.50;;;;;;10505001;28;20220;-81
2021/07/24 04:21:58;;;;;;;13.70;12.30;;;21.40;94.20;;;;;;10488993;28;20641;-83
2021/07/24 04:27:01;;;;;;;12.80;11.60;;;21.40;93.80;;;;;;10505789;28;20267;-83
2021/07/24 04:32:04;;;;;;;13.50;12.17;;;21.50;93.70;;;;;;10510939;28;20216;-82
2021/07/24 04:37:06;;;;;;;13.60;12.40;;;21.50;93.80;;;;;;10502064;28;20286;-82
2021/07/24 04:42:10;;;;;;;13.20;11.90;;;21.50;93.60;;;;;;10506113;28;20204;-82
2021/07/24 04:47:12;;;;;;;13.87;12.47;;;21.60;93.60;;;;;;10503289;28;20228;-82
2021/07/24 04:52:14;;;;;;;14.43;11.50;;;21.60;94.60;;;;;;10502167;28;20216;-83
2021/07/24 04:57:19;;;;;;;14.23;12.93;;;21.60;94.20;;;;;;10509419;28;20248;-80
2021/07/24 05:02:22;;;;;;;14.27;12.20;;;21.70;93.80;;;;;;10497803;28;20254;-82
2021/07/24 05:07:24;;;;;;;15.50;14.10;;;21.70;93.80;;;;;;10501364;28;20247;-83
2021/07/24 05:12:27;;;;;;;14.43;13.10;;;21.70;94.00;;;;;;10505030;28;20227;-82
2021/07/24 05:17:29;;;;;;;13.30;12.03;;;21.70;94.60;;;;;;10508483;28;20228;-83
2021/07/24 05:22:31;;;;;;;13.60;12.33;;;21.70;93.90;;;;;;10508645;28;20672;-83
2021/07/24 05:27:35;;;;;;;12.50;11.40;;;21.80;94.50;;;;;;10491867;28;20236;-81
2021/07/24 05:32:37;;;;;;;13.83;12.53;;;21.90;94.80;;;;;;10492475;28;20307;-82
2021/07/24 05:37:39;;;;;;;12.50;11.30;;;22.10;94.70;;;;;;10510309;28;20315;-83
2021/07/24 05:42:42;;;;;;;13.20;12.00;;;22.20;94.10;;;;;;10508657;28;20242;-83
2021/07/24 05:47:45;;;;;;;14.77;12.43;;;22.40;94.10;;;;;;10503013;28;20307;-83
2021/07/24 05:52:47;;;;;;;15.97;12.50;;;22.40;93.50;;;;;;10510883;28;20303;-83
2021/07/24 05:57:50;;;;;;;14.23;11.93;;;22.70;94.60;;;;;;10491280;28;20224;-82
2021/07/24 06:02:52;;;;;;;13.27;12.07;;;23.00;93.90;;;;;;10491741;28;20201;-81
2021/07/24 06:07:54;;;;;;;15.90;12.20;;;23.20;92.90;;;;;;10511112;28;20221;-82
2021/07/24 06:12:58;;;;;;;14.50;13.10;;;23.20;93.00;;;;;;10510151;28;20220;-81
2021/07/24 06:18:00;;;;;;;13.97;12.67;;;23.20;92.20;;;;;;10511991;28;20231;-83
2021/07/24 06:23:02;;;;;;;14.50;13.00;;;23.20;94.00;;;;;;10495662;28;20200;-83
2021/07/24 06:28:06;;;;;;;14.20;12.30;;;23.10;93.40;;;;;;10498285;28;20224;-81
2021/07/24 06:33:08;;;;;;;14.43;12.43;;;23.00;93.80;;;;;;10497355;28;20650;-82
2021/07/24 06:38:12;;;;;;;13.30;12.10;;;23.00;93.50;;;;;;10497060;28;20304;-81
2021/07/24 06:43:15;;;;;;;15.20;13.60;;;23.10;93.90;;;;;;10502564;28;20200;-80
2021/07/24 06:48:17;;;;;;;12.77;11.50;;;23.20;94.60;;;;;;10495972;28;20244;-82
2021/07/24 06:53:20;;;;;;;13.73;12.40;;;23.40;93.70;;;;;;10492534;28;20228;-81
2021/07/24 06:58:23;;;;;;;13.80;12.40;;;23.60;92.60;;;;;;10494448;28;20750;-80
2021/07/24 07:03:25;;;;;;;13.10;11.70;;;23.80;93.40;;;;;;10487598;28;20196;-81
2021/07/24 07:08:27;;;;;;;15.33;13.83;;;24.00;92.80;;;;;;10493531;28;20687;-81
2021/07/24 07:13:31;;;;;;;14.77;12.23;;;24.20;91.90;;;;;;10496875;28;20227;-82
2021/07/24 07:18:33;;;;;;;13.23;12.03;;;24.30;92.50;;;;;;10495165;28;20200;-82
2021/07/24 07:23:35;;;;;;;13.67;12.37;;;24.30;92.70;;;;;;10496677;28;20193;-81
2021/07/24 07:28:39;;;;;;;12.80;11.60;;;24.30;93.20;;;;;;10472318;28;20205;-81
2021/07/24 07:33:41;;;;;;;13.40;12.10;;;24.30;93.80;;;;;;10493584;28;20762;-81
2021/07/24 07:38:43;;;;;;;13.83;12.50;;;24.20;93.60;;;;;;10490665;28;20204;-80
2021/07/24 07:43:47;;;;;;;12.00;10.83;;;24.20;93.10;;;;;;10496516;28;20196;-82
2021/07/24 07:48:49;;;;;;;13.40;12.00;;;24.20;93.20;;;;;;10493979;28;20302;-83
2021/07/24 07:53:51;;;;;;;13.83;12.07;;;24.20;93.60;;;;;;10499550;28;20224;-83
2021/07/24 07:58:55;;;;;;;14.37;12.87;;;24.20;93.40;;;;;;10497295;28;20642;-82
2021/07/24 08:03:57;;;;;;;16.93;13.10;;;24.20;93.10;;;;;;10481169;28;20216;-80
2021/07/24 08:08:59;;;;;;;13.87;12.50;;;24.10;93.10;;;;;;10498277;28;20204;-82
2021/07/24 08:14:02;;;;;;;16.47;14.00;;;24.00;93.10;;;;;;10497603;28;20224;-80
2021/07/24 08:19:04;;;;;;;15.10;12.37;;;23.80;93.20;;;;;;10497983;28;20189;-81
2021/07/24 08:24:07;;;;;;;14.70;13.20;;;23.70;91.80;;;;;;10491321;28;20220;-80
2021/07/24 08:29:10;;;;;;;13.37;12.13;;;23.60;92.80;;;;;;10478612;28;20212;-80
2021/07/24 08:34:12;;;;;;;14.60;13.20;;;23.50;94.60;;;;;;10490602;28;20244;-79
2021/07/24 08:39:14;;;;;;;14.40;13.10;;;23.40;94.30;;;;;;10495682;28;20197;-80
2021/07/24 08:44:18;;;;;;;13.67;12.17;;;23.50;92.90;;;;;;10492556;28;20303;-81
2021/07/24 08:49:20;;;;;;;14.57;13.23;;;23.50;92.90;;;;;;10497644;28;20203;-80
2021/07/24 08:54:22;;;;;;;13.87;12.40;;;23.80;93.60;;;;;;10504219;28;20224;-81
2021/07/24 08:59:26;;;;;;;15.17;13.67;;;24.20;93.70;;;;;;10499836;28;20230;-80
2021/07/24 09:04:30;;;;;;;14.53;12.93;;;24.90;92.60;;;;;;10503317;28;20694;-80
2021/07/24 09:09:33;;;;;;;13.43;12.20;;;25.40;91.90;;;;;;10498204;28;20201;-80
2021/07/24 09:14:37;;;;;;;13.03;11.83;;;25.90;91.20;;;;;;10497759;28;20307;-81
2021/07/24 09:19:41;;;;;;;12.40;11.10;;;26.40;91.60;;;;;;10499989;28;20567;-81
2021/07/24 09:24:43;;;;;;;13.23;11.93;;;27.00;91.00;;;;;;10500055;28;20232;-81
2021/07/24 09:29:46;;;;;;;12.53;11.23;;;27.50;88.60;;;;;;10501152;28;20199;-81
2021/07/24 09:34:48;;;;;;;12.47;11.27;;;27.90;86.70;;;;;;10495917;28;20224;-82
2021/07/24 09:39:51;;;;;;;11.43;10.33;;;28.40;85.40;;;;;;10502501;28;20205;-82
2021/07/24 09:45:07;;;;;;;13.60;12.20;;;28.90;83.90;;;;;;10500942;28;20216;-82
2021/07/24 09:50:11;;;;;;;20.30;12.47;;;29.30;81.60;;;;;;10509534;28;20212;-82
2021/07/24 09:55:17;;;;;;;12.23;10.93;;;29.60;83.60;;;;;;10500495;28;20735;-81
2021/07/24 10:00:26;;;;;;;13.33;11.50;;;30.00;78.90;;;;;;10517820;28;20669;-81
2021/07/24 10:05:37;;;;;;;13.83;11.60;;;30.30;80.70;;;;;;10516150;28;20216;-82
2021/07/24 10:10:40;;;;;;;11.60;10.53;;;30.80;78.30;;;;;;10528218;28;20220;-81
2021/07/24 10:15:45;;;;;;;11.50;10.50;;;31.20;77.60;;;;;;10521281;28;20220;-81
2021/07/24 10:20:50;;;;;;;11.63;10.33;;;31.70;72.00;;;;;;10500075;28;20200;-82
2021/07/24 10:25:58;;;;;;;12.33;9.33;;;32.70;73.10;;;;;;10514289;28;20256;-81
2021/07/24 10:31:08;;;;;;;11.83;10.23;;;32.80;69.20;;;;;;10512688;28;20653;-81
2021/07/24 10:36:13;;;;;;;18.63;10.40;;;32.10;72.30;;;;;;10513889;28;20744;-81
2021/07/24 10:41:49;;;;;;;10.40;9.23;;;31.60;71.20;;;;;;10514676;28;20184;-81
2021/07/24 10:47:11;;;;;;;14.57;11.67;;;31.10;68.60;;;;;;10506938;28;20755;-81
2021/07/24 10:52:14;;;;;;;11.13;9.20;;;30.50;70.70;;;;;;10502503;28;20223;-81
2021/07/24 10:58:02;;;;;;;11.83;9.90;;;29.90;73.40;;;;;;10512252;28;20299;-81
2021/07/24 11:03:36;;;;;;;9.37;8.47;;;29.70;73.20;;;;;;10511091;28;20196;-81
2021/07/24 11:09:20;;;;;;;11.27;10.20;;;29.50;75.90;;;;;;10501860;28;20214;-81
2021/07/24 11:14:53;;;;;;;13.93;10.30;;;29.30;77.60;;;;;;10375792;28;20246;-81
2021/07/24 11:20:25;;;;;;;9.30;8.37;;;29.30;76.20;;;;;;10491089;28;20227;-81
2021/07/24 11:25:36;;;;;;;10.70;8.77;;;29.30;75.60;;;;;;10507564;28;20224;-81
2021/07/24 11:30:38;;;;;;;7.07;6.43;;;29.30;76.00;;;;;;10507128;28;20661;-81
2021/07/24 11:35:42;;;;;;;8.50;6.40;;;29.20;77.20;;;;;;10508342;28;20716;-81
2021/07/24 11:40:45;;;;;;;7.57;6.80;;;29.00;74.50;;;;;;10493241;28;20210;-81
2021/07/24 11:45:47;;;;;;;7.57;6.77;;;28.80;78.60;;;;;;10509028;28;20254;-81
2021/07/24 11:51:01;;;;;;;7.87;7.17;;;28.50;77.20;;;;;;10512470;28;20212;-81
2021/07/24 11:56:09;;;;;;;8.23;7.43;;;28.20;77.40;;;;;;10507726;28;20241;-81
2021/07/24 12:01:29;;;;;;;7.87;7.10;;;28.00;78.90;;;;;;10482784;28;20205;-81
2021/07/24 12:06:34;;;;;;;7.77;6.97;;;28.00;78.00;;;;;;10516338;28;20697;-81
2021/07/24 12:11:38;;;;;;;9.17;7.43;;;28.30;80.30;;;;;;10499733;28;20303;-81
2021/07/24 12:16:41;;;;;;;8.77;7.80;;;28.50;76.80;;;;;;10501248;28;20236;-81
2021/07/24 12:21:46;;;;;;;9.67;8.73;;;28.50;75.90;;;;;;10500294;28;20295;-80
2021/07/24 12:26:48;;;;;;;8.10;7.30;;;28.30;76.70;;;;;;10535880;22;20238;-81
2021/07/24 12:31:52;;;;;;;8.40;7.60;;;28.10;77.20;;;;;;10517377;28;20239;-82
2021/07/24 12:36:57;;;;;;;9.63;8.27;;;28.10;77.30;;;;;;10492178;28;20259;-81
2021/07/24 12:42:00;;;;;;;7.20;6.60;;;28.30;75.40;;;;;;10492955;28;20753;-82
2021/07/24 12:47:13;;;;;;;8.80;7.90;;;28.40;77.00;;;;;;10492617;28;20213;-81
2021/07/24 12:52:28;;;;;;;7.67;6.97;;;28.40;74.30;;;;;;10495741;28;20270;-82
2021/07/24 12:57:30;;;;;;;9.93;7.10;;;28.30;73.60;;;;;;10479926;28;20588;-81
2021/07/24 13:02:34;;;;;;;7.80;7.10;;;28.30;73.10;;;;;;10499565;28;20216;-80
2021/07/24 13:07:40;;;;;;;8.97;7.17;;;28.20;72.70;;;;;;10497353;28;20224;-82
2021/07/24 13:12:43;;;;;;;10.33;6.90;;;28.20;72.90;;;;;;10499319;28;20315;-82
2021/07/24 13:17:45;;;;;;;7.83;7.03;;;28.00;73.70;;;;;;10496430;28;20252;-81
2021/07/24 13:22:49;;;;;;;9.23;7.57;;;27.90;74.80;;;;;;10498058;28;20204;-84
2021/07/24 13:33:11;;;;;;;8.60;7.63;;;27.70;78.80;;;;;;10503635;28;20212;-83
2021/07/24 13:38:15;;;;;;;7.93;7.13;;;27.70;80.30;;;;;;10485580;28;20223;-83
2021/07/24 13:43:18;;;;;;;7.10;6.50;;;27.80;78.50;;;;;;10503758;28;20196;-82
2021/07/24 13:48:20;;;;;;;8.63;7.80;;;27.90;78.90;;;;;;10479919;28;20631;-81
2021/07/24 13:53:24;;;;;;;9.83;7.13;;;28.10;79.20;;;;;;10502965;28;20235;-81
2021/07/24 13:58:26;;;;;;;8.30;7.50;;;28.10;75.60;;;;;;10501826;28;20228;-80
2021/07/24 14:03:28;;;;;;;7.80;7.10;;;28.00;76.70;;;;;;10502575;28;20656;-81
2021/07/24 14:08:32;;;;;;;7.00;6.03;;;27.90;75.80;;;;;;10499698;28;20651;-83
2021/07/24 14:13:34;;;;;;;8.73;7.63;;;27.90;78.90;;;;;;10502170;28;20212;-82
2021/07/24 14:18:36;;;;;;;7.77;7.07;;;27.80;78.00;;;;;;10505321;28;20220;-83
2021/07/24 14:23:40;;;;;;;7.60;6.20;;;27.80;77.90;;;;;;10483071;28;20196;-80
2021/07/24 14:28:42;;;;;;;6.87;6.27;;;27.70;80.90;;;;;;10494121;28;20707;-82
2021/07/24 14:33:44;;;;;;;8.73;7.83;;;27.60;77.20;;;;;;10498437;28;20220;-82
2021/07/24 14:38:48;;;;;;;7.67;6.53;;;27.60;81.20;;;;;;10500774;28;20269;-83
2021/07/24 14:43:50;;;;;;;6.17;5.57;;;27.50;74.30;;;;;;10501716;28;20204;-82
2021/07/24 14:48:52;;;;;;;6.90;5.90;;;27.40;78.20;;;;;;10520580;28;20256;-81
2021/07/24 14:53:55;;;;;;;6.83;6.33;;;27.30;80.70;;;;;;10523057;28;20732;-80
2021/07/24 14:58:57;;;;;;;6.77;6.10;;;27.20;77.70;;;;;;10481644;28;20698;-80
2021/07/24 15:03:59;;;;;;;7.00;6.30;;;27.10;77.20;;;;;;10498041;28;20197;-80
2021/07/24 15:09:03;;;;;;;7.80;5.60;;;27.00;75.30;;;;;;10505344;28;20200;-81
2021/07/24 15:14:05;;;;;;;7.07;6.20;;;27.00;75.30;;;;;;10503442;28;20657;-82
2021/07/24 15:19:07;;;;;;;6.93;6.37;;;26.90;75.20;;;;;;10524592;28;20203;-81
2021/07/24 15:24:10;;;;;;;7.33;6.60;;;27.10;78.90;;;;;;10517445;28;20304;-81
2021/07/24 15:29:13;;;;;;;6.60;6.03;;;27.40;74.10;;;;;;10490837;28;20286;-83
2021/07/24 15:34:15;;;;;;;8.70;7.30;;;27.50;76.50;;;;;;10510598;28;20216;-83
2021/07/24 15:39:18;;;;;;;7.63;6.93;;;27.50;76.40;;;;;;10504067;28;20803;-81
2021/07/24 15:44:20;;;;;;;7.37;6.80;;;27.60;78.80;;;;;;10500773;28;20216;-82
2021/07/24 15:49:23;;;;;;;7.53;6.83;;;27.70;79.40;;;;;;10494837;28;20673;-82
2021/07/24 15:54:26;;;;;;;6.83;6.23;;;27.70;79.30;;;;;;10500168;28;20296;-82
2021/07/24 15:59:28;;;;;;;9.30;7.33;;;27.70;79.00;;;;;;10497435;28;20200;-82
2021/07/24 16:04:31;;;;;;;8.33;7.50;;;27.80;79.40;;;;;;10487274;28;20787;-81
2021/07/24 16:09:35;;;;;;;8.70;7.90;;;27.80;78.50;;;;;;10483317;28;20204;-81
2021/07/24 16:14:37;;;;;;;7.30;6.50;;;27.70;77.90;;;;;;10498674;28;20224;-82
2021/07/24 16:19:39;;;;;;;8.13;7.37;;;27.60;78.80;;;;;;10485538;28;20200;-81
2021/07/24 16:24:46;;;;;;;7.63;6.90;;;27.50;79.90;;;;;;10500904;28;20227;-82
2021/07/24 16:29:48;;;;;;;7.63;6.13;;;27.30;79.90;;;;;;10492220;28;20208;-81
2021/07/24 16:34:50;;;;;;;8.83;7.83;;;27.20;79.40;;;;;;10482375;28;20261;-82
2021/07/24 16:39:54;;;;;;;12.10;7.40;;;27.10;80.10;;;;;;10500069;28;20684;-82
2021/07/24 16:44:57;;;;;;;7.40;6.70;;;27.00;81.20;;;;;;10500304;28;20283;-84
2021/07/24 16:50:01;;;;;;;8.30;7.60;;;26.90;84.90;;;;;;10498063;28;20205;-83
2021/07/24 16:55:06;;;;;;;8.07;7.37;;;26.80;86.60;;;;;;10497194;28;20248;-85
2021/07/24 17:00:09;;;;;;;7.10;6.40;;;26.70;87.70;;;;;;10498800;28;20202;-83
2021/07/24 17:05:12;;;;;;;9.53;7.67;;;26.60;88.40;;;;;;10502431;28;20242;-81
2021/07/24 17:10:15;;;;;;;8.67;7.13;;;26.50;89.20;;;;;;10513237;28;20197;-81
2021/07/24 17:15:17;;;;;;;8.07;7.23;;;26.40;86.70;;;;;;10505740;28;20220;-82
2021/07/24 17:20:20;;;;;;;8.93;7.20;;;26.40;87.50;;;;;;10514121;28;20209;-81
2021/07/24 17:25:23;;;;;;;7.33;6.67;;;26.30;89.20;;;;;;10528335;28;20223;-83
2021/07/24 17:30:26;;;;;;;6.10;5.50;;;26.20;89.10;;;;;;10501417;28;20258;-82
2021/07/24 17:35:32;;;;;;;10.37;7.30;;;26.10;89.50;;;;;;10498337;28;20232;-82
2021/07/24 17:40:40;;;;;;;7.47;6.83;;;26.00;89.70;;;;;;10498192;28;20243;-81
2021/07/24 17:45:42;;;;;;;9.50;8.47;;;26.00;90.60;;;;;;10484532;28;20247;-81
2021/07/24 17:50:44;;;;;;;8.60;7.80;;;26.00;90.50;;;;;;10502019;28;20614;-81
2021/07/24 17:55:54;;;;;;;7.27;6.60;;;25.90;90.20;;;;;;10490646;28;20616;-83
2021/07/24 18:00:56;;;;;;;8.33;7.53;;;25.80;90.70;;;;;;10492508;28;20590;-81
2021/07/24 18:05:58;;;;;;;10.23;7.20;;;25.70;90.40;;;;;;10475946;28;20224;-81
2021/07/24 18:11:06;;;;;;;8.80;8.00;;;25.60;90.90;;;;;;10502229;28;20200;-81
2021/07/24 18:16:11;;;;;;;11.07;8.57;;;25.60;91.10;;;;;;10486912;28;20220;-82
2021/07/24 18:21:14;;;;;;;9.00;7.27;;;25.50;91.30;;;;;;10484550;28;20213;-81
2021/07/24 18:26:21;;;;;;;10.53;8.57;;;25.50;91.40;;;;;;10484394;28;20232;-82
2021/07/24 18:31:23;;;;;;;9.63;8.63;;;25.40;91.80;;;;;;10501102;28;20196;-81
2021/07/24 18:36:25;;;;;;;10.10;8.97;;;25.40;92.60;;;;;;10501275;28;20221;-82
2021/07/24 18:41:30;;;;;;;23.27;13.13;;;25.30;92.00;;;;;;10501696;28;20279;-80
2021/07/24 18:46:33;;;;;;;30.23;21.20;;;25.30;96.00;;;;;;10505008;28;20634;-82
2021/07/24 18:51:35;;;;;;;28.70;15.60;;;24.60;99.80;;;;;;10503138;28;20197;-81
2021/07/24 18:56:38;;;;;;;17.57;13.10;;;23.70;99.90;;;;;;10485331;28;20258;-81
2021/07/24 19:01:40;;;;;;;18.50;16.80;;;22.90;99.90;;;;;;10503008;28;20207;-82
2021/07/24 19:06:42;;;;;;;16.43;14.83;;;22.30;99.90;;;;;;10500560;28;20220;-82
2021/07/24 19:11:46;;;;;;;13.37;12.00;;;22.00;99.90;;;;;;10500926;28;20687;-81
2021/07/24 19:16:49;;;;;;;11.33;10.43;;;21.90;99.90;;;;;;10499584;28;20275;-82
2021/07/24 19:21:51;;;;;;;10.77;9.70;;;21.80;99.90;;;;;;10492503;28;20615;-82
2021/07/24 19:26:54;;;;;;;12.70;11.50;;;21.60;99.90;;;;;;10480653;28;20791;-82
2021/07/24 19:31:58;;;;;;;11.97;10.87;;;21.60;99.90;;;;;;10500682;28;20620;-83
2021/07/24 19:37:00;;;;;;;13.07;11.13;;;21.60;99.90;;;;;;10483682;28;20339;-83
2021/07/24 19:42:04;;;;;;;12.20;11.00;;;21.70;99.90;;;;;;10498832;28;20223;-81
2021/07/24 19:47:06;;;;;;;13.37;12.03;;;21.70;99.90;;;;;;10499354;28;20248;-82
2021/07/24 19:52:08;;;;;;;12.17;11.10;;;21.70;99.90;;;;;;10506790;28;20276;-82
2021/07/24 19:57:12;;;;;;;11.63;10.43;;;21.70;99.90;;;;;;10509133;28;20219;-81
2021/07/24 20:02:14;;;;;;;10.30;9.50;;;21.70;99.90;;;;;;10479618;28;20200;-80
2021/07/24 20:07:16;;;;;;;13.07;11.83;;;21.70;99.90;;;;;;10478302;28;20667;-82
2021/07/24 20:12:19;;;;;;;9.20;8.50;;;21.60;99.90;;;;;;10493964;28;20208;-82
2021/07/24 20:17:21;;;;;;;9.63;8.93;;;21.60;99.90;;;;;;10472229;28;20600;-83
2021/07/24 20:22:29;;;;;;;10.10;9.40;;;21.40;99.90;;;;;;10494244;28;20205;-83
2021/07/24 20:27:33;;;;;;;10.00;9.00;;;21.30;99.90;;;;;;10477697;28;20735;-83
2021/07/24 20:32:35;;;;;;;12.43;9.40;;;21.10;99.90;;;;;;10478313;28;20238;-83
2021/07/24 20:37:37;;;;;;;9.90;9.10;;;21.10;99.90;;;;;;10493036;28;20761;-83
2021/07/24 20:42:41;;;;;;;10.40;9.60;;;21.10;99.90;;;;;;10494252;28;20200;-83
2021/07/24 20:47:43;;;;;;;10.43;9.30;;;21.00;99.90;;;;;;10491780;28;20277;-84
2021/07/24 20:52:45;;;;;;;10.27;9.37;;;21.00;99.90;;;;;;10494845;28;20247;-84
2021/07/24 20:57:48;;;;;;;10.00;9.00;;;21.10;99.90;;;;;;10493850;28;20239;-83
2021/07/24 21:02:50;;;;;;;9.57;8.77;;;21.00;99.90;;;;;;10494111;28;20664;-83
2021/07/24 21:07:59;;;;;;;9.60;8.90;;;20.90;99.90;;;;;;10495475;28;20221;-84
2021/07/24 21:13:02;;;;;;;11.47;9.70;;;20.90;99.90;;;;;;10479633;28;20231;-84
2021/07/24 21:18:04;;;;;;;9.57;8.60;;;20.90;99.90;;;;;;10494398;28;20220;-84
2021/07/24 21:23:07;;;;;;;8.80;8.10;;;20.90;99.90;;;;;;10494517;28;20574;-84
2021/07/24 21:28:10;;;;;;;8.30;7.70;;;20.80;99.90;;;;;;10495285;28;20228;-83
2021/07/24 21:33:12;;;;;;;7.93;7.23;;;20.80;99.90;;;;;;10494711;28;20553;-84
2021/07/24 21:38:14;;;;;;;9.00;8.20;;;20.80;99.90;;;;;;10502147;28;20719;-83
2021/07/24 21:43:18;;;;;;;8.20;7.43;;;20.80;99.90;;;;;;10503151;28;20557;-83
2021/07/24 21:48:21;;;;;;;10.80;8.17;;;20.80;99.90;;;;;;10504313;28;20224;-83
2021/07/24 21:53:25;;;;;;;10.73;9.13;;;20.80;99.90;;;;;;10514223;28;20208;-83
2021/07/24 21:58:29;;;;;;;8.80;8.10;;;20.80;99.90;;;;;;10508052;28;20229;-84
2021/07/24 22:03:32;;;;;;;10.27;7.00;;;20.80;99.90;;;;;;10496564;28;20219;-84
2021/07/24 22:08:39;;;;;;;7.87;7.17;;;20.70;99.90;;;;;;10497289;28;20220;-84
2021/07/24 22:13:42;;;;;;;7.80;7.10;;;20.70;99.90;;;;;;10512540;28;20217;-83
2021/07/24 22:18:44;;;;;;;8.17;7.40;;;20.70;99.90;;;;;;10505265;28;20248;-83
2021/07/24 22:23:54;;;;;;;7.70;7.00;;;20.80;99.90;;;;;;10501226;28;20577;-83
2021/07/24 22:28:57;;;;;;;7.40;6.80;;;20.80;99.90;;;;;;10502896;28;20231;-84
2021/07/24 22:34:00;;;;;;;9.03;8.23;;;20.80;99.90;;;;;;10508502;28;20327;-83
2021/07/24 22:39:02;;;;;;;10.17;9.37;;;20.90;99.90;;;;;;10504851;28;20200;-84
2021/07/24 22:44:05;;;;;;;10.20;9.23;;;20.90;99.90;;;;;;10484759;28;20555;-84
2021/07/24 22:49:07;;;;;;;10.43;9.53;;;21.00;99.90;;;;;;10502083;28;20296;-83
2021/07/24 22:54:10;;;;;;;12.23;11.07;;;21.00;99.90;;;;;;10483591;28;20308;-83
2021/07/24 22:59:13;;;;;;;12.60;11.10;;;21.00;99.90;;;;;;10500244;28;20204;-83
2021/07/24 23:04:15;;;;;;;11.70;10.70;;;21.10;99.90;;;;;;10503563;28;20886;-83
2021/07/24 23:09:18;;;;;;;13.47;11.97;;;21.10;99.90;;;;;;10511773;28;20677;-84
2021/07/24 23:14:21;;;;;;;10.80;9.90;;;21.10;99.90;;;;;;10519988;28;20220;-84
2021/07/24 23:19:25;;;;;;;11.57;10.43;;;21.10;99.90;;;;;;10532413;28;20207;-84
2021/07/24 23:24:27;;;;;;;11.97;10.90;;;21.10;99.90;;;;;;10510238;28;20595;-83
2021/07/24 23:29:31;;;;;;;11.93;10.93;;;21.20;99.90;;;;;;10496998;28;20200;-83
2021/07/24 23:34:34;;;;;;;12.40;11.20;;;21.10;99.90;;;;;;10497261;28;20220;-83
2021/07/24 23:39:36;;;;;;;11.60;10.07;;;21.20;99.90;;;;;;10498814;28;20258;-83
2021/07/24 23:44:39;;;;;;;12.50;11.20;;;21.20;99.90;;;;;;10501714;28;20223;-84
2021/07/24 23:49:41;;;;;;;12.33;11.23;;;21.20;99.90;;;;;;10484947;28;20673;-84
2021/07/24 23:54:43;;;;;;;13.70;12.50;;;21.10;99.90;;;;;;10506666;28;20338;-83
2021/07/24 23:59:47;;;;;;;12.80;11.60;;;21.20;99.90;;;;;;10520668;28;20239;-84
